Time;durP1;ratioP1;P1;durP2;ratioP2;P2;SDS_P1;SDS_P2;PMS_P1;PMS_P2;Temp;Humidity;BMP_temperature;BMP_pressure;BME280_temperature;BME280_humidity;BME280_pressure;Samples;Min_cycle;Max_cycle;Signal;HPM_P1;HPM_P2
2022/11/19 00:02:21;;;;;;;;;;;;;;;;;;5068980;28;19913;-64
2022/11/19 00:04:46;;;;;;;;;;;;;;;;;;5067871;28;19975;-64
2022/11/19 00:07:11;;;;;;;;;;;;;;;;;;5072912;28;19962;-64
2022/11/19 00:09:36;;;;;;;;;;;;;;;;;;5064427;28;20324;-64
2022/11/19 00:14:45;;;;;;;;;;;;;;;;;;5071310;28;19962;-66
2022/11/19 00:17:10;;;;;;;;;;;;;;;;;;5071299;28;19964;-64
2022/11/19 00:19:35;;;;;;;;;;;;;;;;;;5069391;28;20285;-64
2022/11/19 00:22:01;;;;;;;;;;;;;;;;;;5073019;28;20007;-64
2022/11/19 00:24:26;;;;;;;;;;;;;;;;;;5071064;28;19924;-64
2022/11/19 00:26:51;;;;;;;;;;;;;;;;;;5072054;28;19913;-64
2022/11/19 00:29:16;;;;;;;;;;;;;;;;;;5067187;28;19913;-64
2022/11/19 00:31:41;;;;;;;;;;;;;;;;;;5070240;28;19919;-64
2022/11/19 00:34:06;;;;;;;;;;;;;;;;;;5065334;28;19909;-64
2022/11/19 00:36:32;;;;;;;;;;;;;;;;;;5071870;28;19912;-64
2022/11/19 00:38:57;;;;;;;;;;;;;;;;;;5069196;28;19917;-64
2022/11/19 00:41:22;;;;;;;;;;;;;;;;;;5056648;28;19917;-64
2022/11/19 00:43:47;;;;;;;;;;;;;;;;;;5064565;28;20005;-64
2022/11/19 00:46:12;;;;;;;;;;;;;;;;;;5069445;28;19927;-64
2022/11/19 00:48:38;;;;;;;;;;;;;;;;;;5068587;28;19916;-64
2022/11/19 00:51:03;;;;;;;;;;;;;;;;;;5069393;28;20324;-64
2022/11/19 00:53:28;;;;;;;;;;;;;;;;;;5071566;28;19951;-64
2022/11/19 00:55:53;;;;;;;;;;;;;;;;;;5071635;28;20293;-64
2022/11/19 00:58:18;;;;;;;;;;;;;;;;;;5067268;28;19931;-64
2022/11/19 01:00:43;;;;;;;;;;;;;;;;;;5071803;28;19916;-64
2022/11/19 01:03:08;;;;;;;;;;;;;;;;;;5070967;28;19913;-64
2022/11/19 01:05:34;;;;;;;;;;;;;;;;;;5066807;28;19923;-64
2022/11/19 01:07:59;;;;;;;;;;;;;;;;;;5071991;28;20365;-64
2022/11/19 01:10:24;;;;;;;;;;;;;;;;;;5070333;28;20313;-64
2022/11/19 01:15:33;;;;;;;;;;;;;;;;;;5069311;28;19966;-64
2022/11/19 01:17:58;;;;;;;;;;;;;;;;;;5072131;28;20365;-64
2022/11/19 01:20:23;;;;;;;;;;;;;;;;;;5062137;28;19947;-65
2022/11/19 01:22:48;;;;;;;;;;;;;;;;;;5062590;28;20011;-65
2022/11/19 01:25:14;;;;;;;;;;;;;;;;;;5056591;28;19925;-64
2022/11/19 01:27:39;;;;;;;;;;;;;;;;;;5068302;28;20262;-64
2022/11/19 01:30:04;;;;;;;;;;;;;;;;;;5074512;28;20380;-64
2022/11/19 01:32:29;;;;;;;;;;;;;;;;;;5073736;28;19912;-65
2022/11/19 01:34:54;;;;;;;;;;;;;;;;;;5066653;28;20487;-65
2022/11/19 01:37:19;;;;;;;;;;;;;;;;;;5069510;28;19969;-65
2022/11/19 01:39:44;;;;;;;;;;;;;;;;;;5071108;28;19920;-65
2022/11/19 01:42:48;;;;;;;;;;;;;;;;;;5070624;28;19920;-65
2022/11/19 01:44:55;;;;;;;;;;;;;;;;;;5069521;28;20063;-65
2022/11/19 01:47:20;;;;;;;;;;;;;;;;;;5067651;28;19919;-65
2022/11/19 01:49:45;;;;;;;;;;;;;;;;;;5070016;28;19940;-65
2022/11/19 01:52:10;;;;;;;;;;;;;;;;;;5060484;28;20018;-65
2022/11/19 01:54:35;;;;;;;;;;;;;;;;;;5074355;28;20378;-65
2022/11/19 01:57:00;;;;;;;;;;;;;;;;;;5068819;28;19955;-65
2022/11/19 01:59:26;;;;;;;;;;;;;;;;;;5068921;28;20377;-65
2022/11/19 02:01:51;;;;;;;;;;;;;;;;;;5072894;28;19912;-65
2022/11/19 02:04:16;;;;;;;;;;;;;;;;;;5069731;28;19920;-65
2022/11/19 02:06:41;;;;;;;;;;;;;;;;;;5074987;28;20407;-65
2022/11/19 02:09:06;;;;;;;;;;;;;;;;;;5068226;28;19917;-65
2022/11/19 02:11:31;;;;;;;;;;;;;;;;;;5075756;28;20424;-65
2022/11/19 02:13:56;;;;;;;;;;;;;;;;;;5069640;28;19919;-65
2022/11/19 02:16:22;;;;;;;;;;;;;;;;;;5083011;28;20357;-65
2022/11/19 02:18:47;;;;;;;;;;;;;;;;;;5070558;28;20281;-65
2022/11/19 02:21:12;;;;;;;;;;;;;;;;;;5070306;28;20513;-65
2022/11/19 02:23:37;;;;;;;;;;;;;;;;;;5069449;28;19917;-65
2022/11/19 02:26:02;;;;;;;;;;;;;;;;;;5068679;28;19916;-65
2022/11/19 02:28:27;;;;;;;;;;;;;;;;;;5067154;28;19912;-65
2022/11/19 02:30:52;;;;;;;;;;;;;;;;;;5070693;28;19923;-65
2022/11/19 02:33:18;;;;;;;;;;;;;;;;;;5068603;28;20368;-65
2022/11/19 02:35:43;;;;;;;;;;;;;;;;;;5065657;28;20319;-65
2022/11/19 02:38:08;;;;;;;;;;;;;;;;;;5069161;28;20300;-65
2022/11/19 02:40:34;;;;;;;;;;;;;;;;;;5068178;28;19916;-65
2022/11/19 02:42:59;;;;;;;;;;;;;;;;;;5062107;28;20353;-64
2022/11/19 02:45:24;;;;;;;;;;;;;;;;;;5069064;28;19917;-65
2022/11/19 02:47:49;;;;;;;;;;;;;;;;;;5067249;28;19912;-65
2022/11/19 02:50:14;;;;;;;;;;;;;;;;;;5071050;28;20007;-65
2022/11/19 02:52:39;;;;;;;;;;;;;;;;;;5061027;28;19965;-65
2022/11/19 02:55:04;;;;;;;;;;;;;;;;;;5068250;28;19947;-65
2022/11/19 02:57:29;;;;;;;;;;;;;;;;;;5069595;28;19920;-65
2022/11/19 03:05:23;;;;;;;;;;;;;;;;;;5059852;28;19967;-64
2022/11/19 03:07:49;;;;;;;;;;;;;;;;;;5074872;28;19909;-65
2022/11/19 03:10:14;;;;;;;;;;;;;;;;;;5062979;28;19913;-64
2022/11/19 03:12:39;;;;;;;;;;;;;;;;;;5069804;28;20435;-64
2022/11/19 03:17:48;;;;;;;;;;;;;;;;;;5070532;28;19923;-64
2022/11/19 03:20:13;;;;;;;;;;;;;;;;;;5072493;28;20011;-64
2022/11/19 03:22:38;;;;;;;;;;;;;;;;;;5074678;28;19921;-64
2022/11/19 03:25:04;;;;;;;;;;;;;;;;;;5066543;28;19920;-64
2022/11/19 03:27:29;;;;;;;;;;;;;;;;;;5072476;28;19973;-64
2022/11/19 03:29:54;;;;;;;;;;;;;;;;;;5071496;28;19912;-64
2022/11/19 03:32:19;;;;;;;;;;;;;;;;;;5072833;28;19920;-64
2022/11/19 03:34:44;;;;;;;;;;;;;;;;;;5073298;28;20067;-64
2022/11/19 03:37:10;;;;;;;;;;;;;;;;;;5069938;28;19966;-64
2022/11/19 03:39:35;;;;;;;;;;;;;;;;;;5073296;28;20005;-64
2022/11/19 03:42:00;;;;;;;;;;;;;;;;;;5071279;28;19912;-64
2022/11/19 03:44:25;;;;;;;;;;;;;;;;;;5064755;28;19920;-64
2022/11/19 03:46:50;;;;;;;;;;;;;;;;;;5066964;28;19920;-64
2022/11/19 03:49:15;;;;;;;;;;;;;;;;;;5069165;28;19912;-65
2022/11/19 03:51:40;;;;;;;;;;;;;;;;;;5065358;28;19912;-65
2022/11/19 03:54:06;;;;;;;;;;;;;;;;;;5075537;28;20443;-65
2022/11/19 03:56:31;;;;;;;;;;;;;;;;;;5072423;28;20383;-64
2022/11/19 03:58:56;;;;;;;;;;;;;;;;;;5069049;28;19931;-65
2022/11/19 04:01:21;;;;;;;;;;;;;;;;;;5064347;28;20393;-65
2022/11/19 04:04:34;;;;;;;;;;;;;;;;;;5073202;28;19948;-65
2022/11/19 04:06:31;;;;;;;;;;;;;;;;;;5073427;28;19981;-65
2022/11/19 04:08:57;;;;;;;;;;;;;;;;;;5071671;28;19924;-65
2022/11/19 04:11:22;;;;;;;;;;;;;;;;;;5072522;28;19987;-64
2022/11/19 04:13:47;;;;;;;;;;;;;;;;;;5069667;28;20011;-64
2022/11/19 04:16:12;;;;;;;;;;;;;;;;;;5072664;28;20361;-64
2022/11/19 04:18:37;;;;;;;;;;;;;;;;;;5069405;28;19912;-64
2022/11/19 04:21:02;;;;;;;;;;;;;;;;;;5072218;28;20399;-65
2022/11/19 04:23:27;;;;;;;;;;;;;;;;;;5070779;28;20360;-65
2022/11/19 04:25:52;;;;;;;;;;;;;;;;;;5072383;28;20384;-65
2022/11/19 04:28:18;;;;;;;;;;;;;;;;;;5066270;28;19955;-64
2022/11/19 04:30:43;;;;;;;;;;;;;;;;;;5069086;28;20288;-64
2022/11/19 04:33:08;;;;;;;;;;;;;;;;;;5072608;28;19912;-65
2022/11/19 04:35:33;;;;;;;;;;;;;;;;;;5072223;28;20017;-65
2022/11/19 04:37:58;;;;;;;;;;;;;;;;;;5071980;28;19916;-64
2022/11/19 04:40:23;;;;;;;;;;;;;;;;;;5069972;28;20375;-64
2022/11/19 04:42:48;;;;;;;;;;;;;;;;;;5071232;28;19913;-64
2022/11/19 04:45:14;;;;;;;;;;;;;;;;;;5071714;28;20365;-64
2022/11/19 04:47:39;;;;;;;;;;;;;;;;;;5070819;28;19977;-65
2022/11/19 04:50:04;;;;;;;;;;;;;;;;;;5067950;28;19920;-64
2022/11/19 04:52:29;;;;;;;;;;;;;;;;;;5068094;28;19923;-64
2022/11/19 04:54:54;;;;;;;;;;;;;;;;;;5070425;28;19999;-64
2022/11/19 04:57:19;;;;;;;;;;;;;;;;;;5070357;28;19912;-64
2022/11/19 04:59:45;;;;;;;;;;;;;;;;;;5068188;28;19912;-64
2022/11/19 05:02:10;;;;;;;;;;;;;;;;;;5072230;28;19912;-64
2022/11/19 05:04:35;;;;;;;;;;;;;;;;;;5053611;28;19913;-64
2022/11/19 05:07:00;;;;;;;;;;;;;;;;;;5066681;28;19912;-64
2022/11/19 05:09:25;;;;;;;;;;;;;;;;;;5063781;28;20456;-64
2022/11/19 05:11:51;;;;;;;;;;;;;;;;;;5069356;28;20276;-64
2022/11/19 05:14:16;;;;;;;;;;;;;;;;;;5066163;28;19920;-64
2022/11/19 05:16:41;;;;;;;;;;;;;;;;;;5066153;28;19912;-64
2022/11/19 05:19:06;;;;;;;;;;;;;;;;;;5065310;28;19956;-65
2022/11/19 05:21:31;;;;;;;;;;;;;;;;;;5064359;28;19917;-64
2022/11/19 05:23:56;;;;;;;;;;;;;;;;;;5071066;28;19927;-64
2022/11/19 05:26:21;;;;;;;;;;;;;;;;;;5070937;28;19973;-64
2022/11/19 05:28:47;;;;;;;;;;;;;;;;;;5064579;28;20388;-64
2022/11/19 05:31:12;;;;;;;;;;;;;;;;;;5068917;28;20365;-65
2022/11/19 05:33:37;;;;;;;;;;;;;;;;;;5063586;28;19912;-65
2022/11/19 05:36:02;;;;;;;;;;;;;;;;;;5070298;28;20283;-65
2022/11/19 05:38:27;;;;;;;;;;;;;;;;;;5071229;28;20391;-65
2022/11/19 05:40:52;;;;;;;;;;;;;;;;;;5069208;28;20494;-65
2022/11/19 05:43:17;;;;;;;;;;;;;;;;;;5062462;28;19913;-65
2022/11/19 05:45:42;;;;;;;;;;;;;;;;;;5068604;28;20361;-65
2022/11/19 05:48:08;;;;;;;;;;;;;;;;;;5061675;28;19923;-65
2022/11/19 05:50:33;;;;;;;;;;;;;;;;;;5071279;28;20357;-65
2022/11/19 05:52:58;;;;;;;;;;;;;;;;;;5068164;28;19912;-65
2022/11/19 05:55:23;;;;;;;;;;;;;;;;;;5071249;28;19924;-64
2022/11/19 05:57:49;;;;;;;;;;;;;;;;;;5066357;28;20334;-64
2022/11/19 06:00:14;;;;;;;;;;;;;;;;;;5067813;28;20324;-64
2022/11/19 06:02:39;;;;;;;;;;;;;;;;;;5071029;28;20416;-64
2022/11/19 06:05:04;;;;;;;;;;;;;;;;;;5065742;28;20344;-64
2022/11/19 06:07:29;;;;;;;;;;;;;;;;;;5068624;28;19920;-64
2022/11/19 06:09:54;;;;;;;;;;;;;;;;;;5077397;28;19950;-64
2022/11/19 06:12:19;;;;;;;;;;;;;;;;;;5067689;28;19917;-65
2022/11/19 06:14:45;;;;;;;;;;;;;;;;;;5062313;28;19912;-65
2022/11/19 06:17:10;;;;;;;;;;;;;;;;;;5069894;28;20387;-65
2022/11/19 06:19:35;;;;;;;;;;;;;;;;;;5068698;28;20357;-64
2022/11/19 06:22:00;;;;;;;;;;;;;;;;;;5067442;28;19936;-64
2022/11/19 06:24:25;;;;;;;;;;;;;;;;;;5075812;28;19925;-64
2022/11/19 06:26:50;;;;;;;;;;;;;;;;;;5071472;28;19912;-64
2022/11/19 06:29:16;;;;;;;;;;;;;;;;;;5067782;28;19967;-65
2022/11/19 06:31:41;;;;;;;;;;;;;;;;;;5071682;28;19912;-65
2022/11/19 06:34:06;;;;;;;;;;;;;;;;;;5069794;28;19916;-64
2022/11/19 06:36:31;;;;;;;;;;;;;;;;;;5069445;28;19935;-65
2022/11/19 06:38:56;;;;;;;;;;;;;;;;;;5063205;28;19920;-65
2022/11/19 06:41:21;;;;;;;;;;;;;;;;;;5068769;28;19917;-65
2022/11/19 06:43:46;;;;;;;;;;;;;;;;;;5073444;28;19916;-64
2022/11/19 06:46:12;;;;;;;;;;;;;;;;;;5065180;28;19913;-64
2022/11/19 06:48:37;;;;;;;;;;;;;;;;;;5061720;28;19925;-65
2022/11/19 06:51:02;;;;;;;;;;;;;;;;;;5069641;28;19912;-65
2022/11/19 06:53:27;;;;;;;;;;;;;;;;;;5064149;28;19960;-65
2022/11/19 06:55:52;;;;;;;;;;;;;;;;;;5067227;28;19912;-65
2022/11/19 06:58:17;;;;;;;;;;;;;;;;;;5071207;28;19942;-65
2022/11/19 07:00:42;;;;;;;;;;;;;;;;;;5071794;28;20368;-64
2022/11/19 07:03:08;;;;;;;;;;;;;;;;;;5074007;28;19916;-64
2022/11/19 07:05:33;;;;;;;;;;;;;;;;;;5071348;28;19917;-64
2022/11/19 07:07:58;;;;;;;;;;;;;;;;;;5064891;28;19917;-64
2022/11/19 07:10:23;;;;;;;;;;;;;;;;;;5068759;28;19951;-64
2022/11/19 07:12:48;;;;;;;;;;;;;;;;;;5066256;28;19926;-64
2022/11/19 07:15:13;;;;;;;;;;;;;;;;;;5059590;28;20361;-64
2022/11/19 07:17:39;;;;;;;;;;;;;;;;;;5071588;28;19913;-64
2022/11/19 07:20:04;;;;;;;;;;;;;;;;;;5073673;28;19913;-64
2022/11/19 07:22:29;;;;;;;;;;;;;;;;;;5072729;28;19912;-64
2022/11/19 07:24:54;;;;;;;;;;;;;;;;;;5067533;28;19927;-64
2022/11/19 07:27:19;;;;;;;;;;;;;;;;;;5070623;28;20361;-64
2022/11/19 07:29:46;;;;;;;;;;;;;;;;;;5073585;28;20300;-65
2022/11/19 07:32:11;;;;;;;;;;;;;;;;;;5061453;28;20296;-64
2022/11/19 07:34:36;;;;;;;;;;;;;;;;;;5075405;28;20383;-64
2022/11/19 07:37:02;;;;;;;;;;;;;;;;;;5070527;28;20395;-65
2022/11/19 07:39:27;;;;;;;;;;;;;;;;;;5084738;28;19919;-65
2022/11/19 07:44:36;;;;;;;;;;;;;;;;;;5063312;28;19923;-64
2022/11/19 07:47:01;;;;;;;;;;;;;;;;;;5058154;28;20003;-65
2022/11/19 07:49:26;;;;;;;;;;;;;;;;;;5086381;28;19924;-64
2022/11/19 07:51:51;;;;;;;;;;;;;;;;;;5068279;28;19920;-66
2022/11/19 07:54:16;;;;;;;;;;;;;;;;;;5070043;28;19919;-65
2022/11/19 07:56:41;;;;;;;;;;;;;;;;;;5071893;28;20343;-65
2022/11/19 07:59:07;;;;;;;;;;;;;;;;;;5066182;28;20280;-65
2022/11/19 08:01:32;;;;;;;;;;;;;;;;;;5071505;28;19999;-64
2022/11/19 08:03:57;;;;;;;;;;;;;;;;;;5073065;28;19912;-65
2022/11/19 08:06:22;;;;;;;;;;;;;;;;;;5069429;28;20383;-65
2022/11/19 08:08:47;;;;;;;;;;;;;;;;;;5072599;28;19962;-65
2022/11/19 08:11:12;;;;;;;;;;;;;;;;;;5071900;28;20341;-65
2022/11/19 08:13:38;;;;;;;;;;;;;;;;;;5072455;28;19942;-65
2022/11/19 08:16:03;;;;;;;;;;;;;;;;;;5071726;28;19913;-65
2022/11/19 08:18:28;;;;;;;;;;;;;;;;;;5070195;28;20349;-65
2022/11/19 08:20:54;;;;;;;;;;;;;;;;;;5067804;28;19913;-65
2022/11/19 08:23:19;;;;;;;;;;;;;;;;;;5072174;28;20308;-65
2022/11/19 08:25:44;;;;;;;;;;;;;;;;;;5062862;28;19916;-65
2022/11/19 08:28:09;;;;;;;;;;;;;;;;;;5062283;28;19924;-65
2022/11/19 08:30:35;;;;;;;;;;;;;;;;;;5066575;28;19912;-65
2022/11/19 08:33:00;;;;;;;;;;;;;;;;;;5071689;28;20367;-66
2022/11/19 08:35:25;;;;;;;;;;;;;;;;;;5064409;28;19931;-65
2022/11/19 08:37:50;;;;;;;;;;;;;;;;;;5084691;28;19913;-62
2022/11/19 08:40:15;;;;;;;;;;;;;;;;;;5068952;28;19916;-61
2022/11/19 08:42:59;;;;;;;;;;;;;;;;;;5069175;28;19915;-61
2022/11/19 08:45:25;;;;;;;;;;;;;;;;;;5059004;28;19917;-61
2022/11/19 08:47:50;;;;;;;;;;;;;;;;;;5064864;28;19939;-61
2022/11/19 08:50:16;;;;;;;;;;;;;;;;;;5067717;28;19908;-62
2022/11/19 08:52:41;;;;;;;;;;;;;;;;;;5052918;28;20208;-61
2022/11/19 08:55:07;;;;;;;;;;;;;;;;;;5074774;28;19924;-61
2022/11/19 08:57:32;;;;;;;;;;;;;;;;;;5079138;28;19916;-65
2022/11/19 08:59:57;;;;;;;;;;;;;;;;;;5063229;28;20008;-63
2022/11/19 09:02:22;;;;;;;;;;;;;;;;;;5061427;28;19982;-65
2022/11/19 09:04:47;;;;;;;;;;;;;;;;;;5070108;28;19919;-68
2022/11/19 09:07:12;;;;;;;;;;;;;;;;;;5068760;28;19919;-67
2022/11/19 09:09:38;;;;;;;;;;;;;;;;;;5075166;28;20063;-67
2022/11/19 09:12:03;;;;;;;;;;;;;;;;;;5065920;28;20285;-67
2022/11/19 09:14:28;;;;;;;;;;;;;;;;;;5069650;28;19958;-67
2022/11/19 09:16:53;;;;;;;;;;;;;;;;;;5068806;28;20000;-66
2022/11/19 09:19:18;;;;;;;;;;;;;;;;;;5066270;28;19950;-66
2022/11/19 09:21:43;;;;;;;;;;;;;;;;;;5066952;28;19924;-67
2022/11/19 09:24:08;;;;;;;;;;;;;;;;;;5052448;28;19932;-67
2022/11/19 09:26:34;;;;;;;;;;;;;;;;;;5065641;28;19966;-67
2022/11/19 09:28:59;;;;;;;;;;;;;;;;;;5058486;28;19924;-67
2022/11/19 09:31:24;;;;;;;;;;;;;;;;;;5059187;28;20331;-66
2022/11/19 09:33:49;;;;;;;;;;;;;;;;;;5063790;28;20281;-67
2022/11/19 09:36:14;;;;;;;;;;;;;;;;;;5064924;28;20062;-67
2022/11/19 09:38:39;;;;;;;;;;;;;;;;;;5066612;28;20270;-67
2022/11/19 09:41:05;;;;;;;;;;;;;;;;;;5067196;28;19912;-67
2022/11/19 09:43:30;;;;;;;;;;;;;;;;;;5074994;28;19924;-67
2022/11/19 09:45:55;;;;;;;;;;;;;;;;;;5079911;28;20369;-67
2022/11/19 09:48:21;;;;;;;;;;;;;;;;;;5068892;28;19916;-67
2022/11/19 09:50:46;;;;;;;;;;;;;;;;;;5062864;28;20057;-67
2022/11/19 09:53:11;;;;;;;;;;;;;;;;;;5066284;28;20015;-67
2022/11/19 09:55:36;;;;;;;;;;;;;;;;;;5072425;28;20019;-67
2022/11/19 09:58:01;;;;;;;;;;;;;;;;;;5054970;28;19913;-67
2022/11/19 10:00:27;;;;;;;;;;;;;;;;;;5061833;28;19917;-67
2022/11/19 10:02:52;;;;;;;;;;;;;;;;;;5059027;28;19913;-67
2022/11/19 10:05:17;;;;;;;;;;;;;;;;;;5069250;28;20357;-67
2022/11/19 10:07:43;;;;;;;;;;;;;;;;;;5057132;28;19920;-68
2022/11/19 10:10:08;;;;;;;;;;;;;;;;;;5068521;28;19916;-67
2022/11/19 10:12:33;;;;;;;;;;;;;;;;;;5089063;28;19908;-67
2022/11/19 10:14:58;;;;;;;;;;;;;;;;;;5068687;28;19917;-67
2022/11/19 10:17:23;;;;;;;;;;;;;;;;;;5064266;28;20335;-67
2022/11/19 10:19:48;;;;;;;;;;;;;;;;;;5068774;28;19916;-67
2022/11/19 10:22:13;;;;;;;;;;;;;;;;;;5069852;28;20292;-66
2022/11/19 10:24:39;;;;;;;;;;;;;;;;;;5064823;28;19952;-67
2022/11/19 10:27:09;;;;;;;;;;;;;;;;;;5066352;28;19935;-66
2022/11/19 10:29:34;;;;;;;;;;;;;;;;;;5059143;28;19920;-66
2022/11/19 10:31:59;;;;;;;;;;;;;;;;;;5059430;28;19919;-66
2022/11/19 10:34:26;;;;;;;;;;;;;;;;;;5069926;28;19952;-65
2022/11/19 10:36:51;;;;;;;;;;;;;;;;;;5059604;28;19913;-67
2022/11/19 10:39:16;;;;;;;;;;;;;;;;;;5061284;28;20429;-70
2022/11/19 10:41:41;;;;;;;;;;;;;;;;;;5057587;28;19913;-67
2022/11/19 10:44:06;;;;;;;;;;;;;;;;;;5067559;28;19912;-68
2022/11/19 10:46:31;;;;;;;;;;;;;;;;;;5072718;28;19921;-67
2022/11/19 10:48:57;;;;;;;;;;;;;;;;;;5068801;28;19955;-64
2022/11/19 10:51:22;;;;;;;;;;;;;;;;;;5059788;28;19966;-63
2022/11/19 10:53:47;;;;;;;;;;;;;;;;;;5075142;28;20179;-64
2022/11/19 10:56:12;;;;;;;;;;;;;;;;;;5058690;28;19974;-64
2022/11/19 10:58:37;;;;;;;;;;;;;;;;;;5062488;28;19922;-65
2022/11/19 11:01:03;;;;;;;;;;;;;;;;;;5064518;28;19916;-64
2022/11/19 11:03:28;;;;;;;;;;;;;;;;;;5059162;28;19920;-65
2022/11/19 11:05:54;;;;;;;;;;;;;;;;;;5100503;28;19924;-64
2022/11/19 11:08:19;;;;;;;;;;;;;;;;;;5067284;28;19930;-64
2022/11/19 11:10:44;;;;;;;;;;;;;;;;;;5085679;28;20029;-64
2022/11/19 11:15:54;;;;;;;;;;;;;;;;;;5064537;28;20379;-63
2022/11/19 11:18:19;;;;;;;;;;;;;;;;;;5062887;28;20015;-63
2022/11/19 11:20:44;;;;;;;;;;;;;;;;;;5061251;28;19917;-63
2022/11/19 11:23:09;;;;;;;;;;;;;;;;;;5063682;28;19920;-63
2022/11/19 11:25:34;;;;;;;;;;;;;;;;;;5068500;28;19963;-63
2022/11/19 11:27:59;;;;;;;;;;;;;;;;;;5061783;28;19924;-69
2022/11/19 11:30:24;;;;;;;;;;;;;;;;;;5068744;28;19912;-74
2022/11/19 11:32:49;;;;;;;;;;;;;;;;;;5066476;28;19912;-70
2022/11/19 11:35:15;;;;;;;;;;;;;;;;;;5062693;28;19920;-70
2022/11/19 11:37:40;;;;;;;;;;;;;;;;;;5061901;28;19919;-70
2022/11/19 11:40:05;;;;;;;;;;;;;;;;;;5068417;28;19920;-70
2022/11/19 11:42:30;;;;;;;;;;;;;;;;;;5072571;28;19921;-71
2022/11/19 11:44:55;;;;;;;;;;;;;;;;;;5074261;28;19912;-70
2022/11/19 11:47:20;;;;;;;;;;;;;;;;;;5057265;28;19999;-69
2022/11/19 11:49:45;;;;;;;;;;;;;;;;;;5064848;28;19923;-70
2022/11/19 11:52:11;;;;;;;;;;;;;;;;;;5077845;28;19912;-72
2022/11/19 11:54:36;;;;;;;;;;;;;;;;;;5065680;28;19916;-69
2022/11/19 11:57:01;;;;;;;;;;;;;;;;;;5068930;28;19919;-73
2022/11/19 11:59:26;;;;;;;;;;;;;;;;;;5055828;28;19916;-69
2022/11/19 12:01:51;;;;;;;;;;;;;;;;;;5069348;28;19983;-67
2022/11/19 12:04:16;;;;;;;;;;;;;;;;;;5066481;28;20304;-68
2022/11/19 12:06:41;;;;;;;;;;;;;;;;;;5068512;28;19923;-68
2022/11/19 12:09:07;;;;;;;;;;;;;;;;;;5067494;28;19917;-69
2022/11/19 12:11:52;;;;;;;;;;;;;;;;;;5069285;28;20431;-68
2022/11/19 12:14:17;;;;;;;;;;;;;;;;;;5070239;28;19982;-68
2022/11/19 12:16:42;;;;;;;;;;;;;;;;;;5080962;28;20319;-68
2022/11/19 12:19:07;;;;;;;;;;;;;;;;;;5063760;28;19923;-68
2022/11/19 12:21:32;;;;;;;;;;;;;;;;;;5068750;28;20331;-69
2022/11/19 12:23:58;;;;;;;;;;;;;;;;;;5067250;28;19928;-67
2022/11/19 12:26:23;;;;;;;;;;;;;;;;;;5069254;28;20353;-68
2022/11/19 12:28:48;;;;;;;;;;;;;;;;;;5061194;28;20292;-68
2022/11/19 12:31:13;;;;;;;;;;;;;;;;;;5062468;28;19917;-67
2022/11/19 12:33:38;;;;;;;;;;;;;;;;;;5062870;28;19921;-69
2022/11/19 12:36:04;;;;;;;;;;;;;;;;;;5087581;28;19916;-68
2022/11/19 12:38:29;;;;;;;;;;;;;;;;;;5071128;28;19912;-69
2022/11/19 12:40:54;;;;;;;;;;;;;;;;;;5065585;28;19913;-69
2022/11/19 12:43:19;;;;;;;;;;;;;;;;;;5068049;28;21694;-68
2022/11/19 12:45:44;;;;;;;;;;;;;;;;;;5068491;28;19920;-68
2022/11/19 12:48:10;;;;;;;;;;;;;;;;;;5066573;28;19920;-76
2022/11/19 12:50:35;;;;;;;;;;;;;;;;;;5063694;28;20013;-64
2022/11/19 12:53:00;;;;;;;;;;;;;;;;;;5062198;28;19913;-70
2022/11/19 12:55:25;;;;;;;;;;;;;;;;;;5071027;28;20289;-71
2022/11/19 12:57:51;;;;;;;;;;;;;;;;;;5060200;28;19952;-71
2022/11/19 13:00:17;;;;;;;;;;;;;;;;;;5063971;28;20348;-71
2022/11/19 13:02:42;;;;;;;;;;;;;;;;;;5063479;28;20365;-70
2022/11/19 13:05:07;;;;;;;;;;;;;;;;;;5066927;28;19936;-71
2022/11/19 13:07:33;;;;;;;;;;;;;;;;;;5063899;28;19990;-65
2022/11/19 13:09:59;;;;;;;;;;;;;;;;;;5060105;28;19966;-67
2022/11/19 13:12:25;;;;;;;;;;;;;;;;;;5063801;28;19923;-66
2022/11/19 13:14:51;;;;;;;;;;;;;;;;;;5067171;28;19916;-67
2022/11/19 13:17:16;;;;;;;;;;;;;;;;;;5068512;28;19983;-66
2022/11/19 13:19:42;;;;;;;;;;;;;;;;;;5068002;28;20361;-67
2022/11/19 13:22:07;;;;;;;;;;;;;;;;;;5080904;28;20382;-68
2022/11/19 13:24:32;;;;;;;;;;;;;;;;;;5068342;28;20288;-66
2022/11/19 13:26:57;;;;;;;;;;;;;;;;;;5068464;28;20360;-67
2022/11/19 13:29:22;;;;;;;;;;;;;;;;;;5070168;28;20202;-68
2022/11/19 13:31:47;;;;;;;;;;;;;;;;;;5063926;28;19921;-68
2022/11/19 13:34:13;;;;;;;;;;;;;;;;;;5069754;28;19913;-67
2022/11/19 13:36:38;;;;;;;;;;;;;;;;;;5062055;28;20007;-65
2022/11/19 13:39:03;;;;;;;;;;;;;;;;;;5062709;28;20364;-62
2022/11/19 13:41:28;;;;;;;;;;;;;;;;;;5065762;28;19912;-65
2022/11/19 13:46:37;;;;;;;;;;;;;;;;;;5061133;28;19973;-65
2022/11/19 13:49:02;;;;;;;;;;;;;;;;;;5066154;28;19920;-65
2022/11/19 13:51:27;;;;;;;;;;;;;;;;;;5064775;28;19920;-66
2022/11/19 13:53:52;;;;;;;;;;;;;;;;;;5065115;28;19944;-65
2022/11/19 13:56:19;;;;;;;;;;;;;;;;;;5065133;28;19921;-66
2022/11/19 13:58:44;;;;;;;;;;;;;;;;;;5063689;28;20154;-66
2022/11/19 14:01:10;;;;;;;;;;;;;;;;;;5084341;28;19912;-65
2022/11/19 14:03:35;;;;;;;;;;;;;;;;;;5068311;28;19935;-67
2022/11/19 14:06:00;;;;;;;;;;;;;;;;;;5066950;28;20357;-66
2022/11/19 14:08:26;;;;;;;;;;;;;;;;;;5072324;28;20262;-64
2022/11/19 14:10:51;;;;;;;;;;;;;;;;;;5064844;28;20384;-62
2022/11/19 14:13:16;;;;;;;;;;;;;;;;;;5060430;28;19912;-65
2022/11/19 14:26:36;;;;;;;;;;;;;;;;;;5065002;28;19958;-69
2022/11/19 14:29:01;;;;;;;;;;;;;;;;;;5076159;28;19916;-67
2022/11/19 14:31:27;;;;;;;;;;;;;;;;;;5069090;28;19920;-68
2022/11/19 14:33:52;;;;;;;;;;;;;;;;;;5067455;28;19919;-71
2022/11/19 14:36:17;;;;;;;;;;;;;;;;;;5066724;28;19916;-65
2022/11/19 14:38:42;;;;;;;;;;;;;;;;;;5060781;28;19913;-64
2022/11/19 14:41:07;;;;;;;;;;;;;;;;;;5064388;28;20011;-68
2022/11/19 14:46:16;;;;;;;;;;;;;;;;;;5063111;28;19920;-67
2022/11/19 14:48:41;;;;;;;;;;;;;;;;;;5068763;28;19921;-66
2022/11/19 14:51:06;;;;;;;;;;;;;;;;;;5065287;28;20351;-65
2022/11/19 14:53:31;;;;;;;;;;;;;;;;;;5067839;28;20015;-69
2022/11/19 14:55:56;;;;;;;;;;;;;;;;;;5069580;28;19919;-64
2022/11/19 14:58:22;;;;;;;;;;;;;;;;;;5062626;28;19928;-65
2022/11/19 15:00:47;;;;;;;;;;;;;;;;;;5063133;28;20348;-69
2022/11/19 15:03:12;;;;;;;;;;;;;;;;;;5065852;28;19909;-65
2022/11/19 15:05:37;;;;;;;;;;;;;;;;;;5069340;28;19920;-65
2022/11/19 15:08:02;;;;;;;;;;;;;;;;;;5067963;28;19916;-66
2022/11/19 15:10:27;;;;;;;;;;;;;;;;;;5064080;28;20066;-67
2022/11/19 15:12:53;;;;;;;;;;;;;;;;;;5072190;28;20549;-69
2022/11/19 15:15:18;;;;;;;;;;;;;;;;;;5086161;28;19912;-65
2022/11/19 15:17:43;;;;;;;;;;;;;;;;;;5069495;28;20127;-66
2022/11/19 15:20:08;;;;;;;;;;;;;;;;;;5068601;28;19987;-64
2022/11/19 15:22:33;;;;;;;;;;;;;;;;;;5067501;28;19931;-68
2022/11/19 15:24:58;;;;;;;;;;;;;;;;;;5068865;28;19926;-67
2022/11/19 15:27:23;;;;;;;;;;;;;;;;;;5067331;28;19920;-65
2022/11/19 15:29:49;;;;;;;;;;;;;;;;;;5075957;28;19935;-64
2022/11/19 15:32:14;;;;;;;;;;;;;;;;;;5071590;28;19927;-66
2022/11/19 15:34:39;;;;;;;;;;;;;;;;;;5068605;28;19916;-67
2022/11/19 15:37:04;;;;;;;;;;;;;;;;;;5069165;28;19917;-66
2022/11/19 15:39:30;;;;;;;;;;;;;;;;;;5064802;28;19999;-64
2022/11/19 15:42:02;;;;;;;;;;;;;;;;;;5068381;28;20360;-64
2022/11/19 15:44:27;;;;;;;;;;;;;;;;;;5070020;28;19916;-64
2022/11/19 15:46:52;;;;;;;;;;;;;;;;;;5067076;28;19923;-65
2022/11/19 15:49:17;;;;;;;;;;;;;;;;;;5065994;28;19916;-64
2022/11/19 15:51:43;;;;;;;;;;;;;;;;;;5079821;28;20266;-66
2022/11/19 15:54:08;;;;;;;;;;;;;;;;;;5066375;28;19916;-63
2022/11/19 15:56:33;;;;;;;;;;;;;;;;;;5065583;28;19955;-64
2022/11/19 15:58:58;;;;;;;;;;;;;;;;;;5080354;28;20331;-65
2022/11/19 16:01:23;;;;;;;;;;;;;;;;;;5068598;28;20297;-66
2022/11/19 16:03:48;;;;;;;;;;;;;;;;;;5077169;28;20492;-68
2022/11/19 16:06:13;;;;;;;;;;;;;;;;;;5081691;28;20380;-64
2022/11/19 16:08:39;;;;;;;;;;;;;;;;;;5068747;28;19916;-65
2022/11/19 16:19:16;;;;;;;;;;;;;;;;;;5062387;28;19920;-69
2022/11/19 16:21:41;;;;;;;;;;;;;;;;;;5068538;28;19912;-67
2022/11/19 16:26:50;;;;;;;;;;;;;;;;;;5068748;28;20192;-69
2022/11/19 16:29:15;;;;;;;;;;;;;;;;;;5066281;28;19924;-69
2022/11/19 16:31:40;;;;;;;;;;;;;;;;;;5069259;28;19912;-69
2022/11/19 16:34:05;;;;;;;;;;;;;;;;;;5065716;28;19963;-69
2022/11/19 16:36:32;;;;;;;;;;;;;;;;;;5064056;28;19984;-69
2022/11/19 16:38:57;;;;;;;;;;;;;;;;;;5062519;28;19912;-69
2022/11/19 16:44:06;;;;;;;;;;;;;;;;;;5067470;28;19939;-69
2022/11/19 16:46:31;;;;;;;;;;;;;;;;;;5062148;28;20368;-68
2022/11/19 16:48:56;;;;;;;;;;;;;;;;;;5062609;28;19921;-69
2022/11/19 16:51:21;;;;;;;;;;;;;;;;;;5064691;28;20146;-69
2022/11/19 16:53:47;;;;;;;;;;;;;;;;;;5063942;28;19923;-68
2022/11/19 16:56:12;;;;;;;;;;;;;;;;;;5072721;28;19917;-68
2022/11/19 16:58:37;;;;;;;;;;;;;;;;;;5057800;28;19966;-68
2022/11/19 17:01:02;;;;;;;;;;;;;;;;;;5055998;28;20175;-69
2022/11/19 17:03:28;;;;;;;;;;;;;;;;;;5050688;28;19912;-69
2022/11/19 17:05:53;;;;;;;;;;;;;;;;;;5058506;28;20013;-69
2022/11/19 17:08:18;;;;;;;;;;;;;;;;;;5058809;28;19920;-68
2022/11/19 17:10:43;;;;;;;;;;;;;;;;;;5065606;28;19917;-69
2022/11/19 17:13:08;;;;;;;;;;;;;;;;;;5067859;28;19966;-69
2022/11/19 17:15:33;;;;;;;;;;;;;;;;;;5064993;28;20452;-69
2022/11/19 17:17:59;;;;;;;;;;;;;;;;;;5065280;28;20385;-69
2022/11/19 17:20:24;;;;;;;;;;;;;;;;;;5064529;28;20016;-68
2022/11/19 17:22:49;;;;;;;;;;;;;;;;;;5068387;28;19913;-69